createdAt,value
2019-01-28T00:00:20.326Z,997.93
2019-01-28T00:01:20.907Z,997.9
2019-01-28T00:02:21.137Z,997.94
2019-01-28T00:03:20.214Z,997.89
2019-01-28T00:04:20.913Z,997.91
2019-01-28T00:05:20.094Z,997.94
2019-01-28T00:06:20.089Z,997.92
2019-01-28T00:07:20.258Z,997.99
2019-01-28T00:08:20.434Z,997.99
2019-01-28T00:09:20.425Z,998
2019-01-28T00:10:20.193Z,998.04
2019-01-28T00:11:20.547Z,998
2019-01-28T00:12:20.186Z,998
2019-01-28T00:13:20.214Z,997.99
2019-01-28T00:14:20.334Z,997.98
2019-01-28T00:15:20.375Z,998
2019-01-28T00:16:20.184Z,997.99
2019-01-28T00:17:20.326Z,998.07
2019-01-28T00:18:21.159Z,998.03
2019-01-28T00:19:20.280Z,998.01
2019-01-28T00:20:20.692Z,998.07
2019-01-28T00:21:20.414Z,998.05
2019-01-28T00:22:20.335Z,998.1
2019-01-28T00:23:20.287Z,998.1
2019-01-28T00:24:20.418Z,998.09
2019-01-28T00:25:20.283Z,998.12
2019-01-28T00:26:21.068Z,998.1
2019-01-28T00:27:20.186Z,998.14
2019-01-28T00:28:22.034Z,998.12
2019-01-28T00:29:20.413Z,998.15
2019-01-28T00:30:20.653Z,998.12
2019-01-28T00:31:20.219Z,998.13
2019-01-28T00:32:19.989Z,998.14
2019-01-28T00:33:20.255Z,998.21
2019-01-28T00:34:20.007Z,998.18
2019-01-28T00:35:20.539Z,998.21
2019-01-28T00:36:20.226Z,998.18
2019-01-28T00:37:23.230Z,998.18
2019-01-28T00:38:20.059Z,998.2
2019-01-28T00:39:20.489Z,998.16
2019-01-28T00:40:20.449Z,998.16
2019-01-28T00:41:20.101Z,998.19
2019-01-28T00:42:20.223Z,998.16
2019-01-28T00:43:20.262Z,998.18
2019-01-28T00:44:20.096Z,998.14
2019-01-28T00:45:20.176Z,998.23
2019-01-28T00:46:20.185Z,998.22
2019-01-28T00:47:20.191Z,998.18
2019-01-28T00:48:20.188Z,998.16
2019-01-28T00:49:20.934Z,998.13
2019-01-28T00:50:20.339Z,998.15
2019-01-28T00:51:20.449Z,998.18
2019-01-28T00:52:20.189Z,998.19
2019-01-28T00:53:20.548Z,998.18
2019-01-28T00:54:20.046Z,998.15
2019-01-28T00:55:20.290Z,998.16
2019-01-28T00:56:20.640Z,998.16
2019-01-28T00:57:20.143Z,998.12
2019-01-28T00:58:20.679Z,998.08
2019-01-28T00:59:20.263Z,998.08
2019-01-28T01:00:20.412Z,998.07
2019-01-28T01:01:21.331Z,998.12
2019-01-28T01:02:20.504Z,998.16
2019-01-28T01:03:20.305Z,998.15
2019-01-28T01:04:19.996Z,998.19
2019-01-28T01:05:20.312Z,998.24
2019-01-28T01:06:20.112Z,998.25
2019-01-28T01:07:20.342Z,998.27
2019-01-28T01:08:20.286Z,998.22
2019-01-28T01:09:19.995Z,998.23
2019-01-28T01:10:20.274Z,998.28
2019-01-28T01:11:20.680Z,998.28
2019-01-28T01:12:20.311Z,998.3
2019-01-28T01:13:20.185Z,998.32
2019-01-28T01:14:20.154Z,998.28
2019-01-28T01:15:20.122Z,998.26
2019-01-28T01:16:20.084Z,998.28
2019-01-28T01:17:20.193Z,998.32
2019-01-28T01:18:23.702Z,998.3
2019-01-28T01:19:20.207Z,998.27
2019-01-28T01:20:20.315Z,998.32
2019-01-28T01:21:20.136Z,998.3
2019-01-28T01:22:20.218Z,998.31
2019-01-28T01:23:20.964Z,998.31
2019-01-28T01:24:20.463Z,998.32
2019-01-28T01:25:20.371Z,998.36
2019-01-28T01:26:20.265Z,998.37
2019-01-28T01:27:20.306Z,998.34
2019-01-28T01:28:20.395Z,998.35
2019-01-28T01:29:21.127Z,998.4
2019-01-28T01:30:20.375Z,998.38
2019-01-28T01:31:20.165Z,998.37
2019-01-28T01:32:20.610Z,998.4
2019-01-28T01:33:20.204Z,998.38
2019-01-28T01:34:20.441Z,998.42
2019-01-28T01:35:20.136Z,998.38
2019-01-28T01:36:20.093Z,998.4
2019-01-28T01:37:20.064Z,998.44
2019-01-28T01:38:20.090Z,998.44
2019-01-28T01:39:20.071Z,998.41
2019-01-28T01:40:21.760Z,998.43
2019-01-28T01:41:20.391Z,998.42
2019-01-28T01:42:20.927Z,998.46
2019-01-28T01:43:20.505Z,998.45
2019-01-28T01:44:20.128Z,998.45
2019-01-28T01:45:20.423Z,998.49
2019-01-28T01:46:20.532Z,998.47
2019-01-28T01:47:20.335Z,998.44
2019-01-28T01:48:20.235Z,998.45
2019-01-28T01:49:20.791Z,998.42
2019-01-28T01:50:20.328Z,998.43
2019-01-28T01:51:20.287Z,998.43
2019-01-28T01:52:20.135Z,998.43
2019-01-28T01:53:20.706Z,998.41
2019-01-28T01:54:20.159Z,998.43
2019-01-28T01:55:20.476Z,998.4
2019-01-28T01:56:20.628Z,998.41
2019-01-28T01:57:20.140Z,998.39
2019-01-28T01:58:20.233Z,998.38
2019-01-28T01:59:21.218Z,998.35
2019-01-28T02:00:21.296Z,998.39
2019-01-28T02:01:20.380Z,998.35
2019-01-28T02:02:20.418Z,998.35
2019-01-28T02:03:20.390Z,998.39
2019-01-28T02:04:20.216Z,998.37
2019-01-28T02:05:20.438Z,998.39
2019-01-28T02:06:19.995Z,998.37
2019-01-28T02:07:20.320Z,998.37
2019-01-28T02:08:20.250Z,998.37
2019-01-28T02:09:19.969Z,998.37
2019-01-28T02:10:20.126Z,998.4
2019-01-28T02:11:20.383Z,998.34
2019-01-28T02:12:20.307Z,998.34
2019-01-28T02:13:20.121Z,998.34
2019-01-28T02:14:20.093Z,998.32
2019-01-28T02:15:20.011Z,998.37
2019-01-28T02:16:20.111Z,998.36
2019-01-28T02:17:20.172Z,998.35
2019-01-28T02:18:20.432Z,998.41
2019-01-28T02:19:20.371Z,998.35
2019-01-28T02:20:20.366Z,998.35
2019-01-28T02:21:20.183Z,998.35
2019-01-28T02:22:20.056Z,998.37
2019-01-28T02:23:20.146Z,998.36
2019-01-28T02:24:20.505Z,998.38
2019-01-28T02:25:20.197Z,998.31
2019-01-28T02:26:20.003Z,998.38
2019-01-28T02:27:20.549Z,998.39
2019-01-28T02:28:20.174Z,998.3
2019-01-28T20:19:46.613Z,1006.04
2019-01-28T20:20:46.599Z,1006.07
2019-01-28T20:21:46.804Z,1006.13
2019-01-28T20:22:46.723Z,1006.12
2019-01-28T20:23:46.767Z,1006.18
2019-01-28T20:24:46.548Z,1006.16
2019-01-28T20:25:46.732Z,1006.21
2019-01-28T20:26:47.553Z,1006.2
2019-01-28T20:27:46.851Z,1006.24
2019-01-28T20:28:47.220Z,1006.26
2019-01-28T20:29:46.681Z,1006.28
2019-01-28T20:30:47.045Z,1006.28
2019-01-28T20:31:46.345Z,1006.35
2019-01-28T20:32:46.308Z,1006.34
2019-01-28T20:33:46.526Z,1006.35
2019-01-28T20:34:46.527Z,1006.38
2019-01-28T20:35:46.706Z,1006.4
2019-01-28T20:36:46.606Z,1006.41
2019-01-28T20:37:46.730Z,1006.42
2019-01-28T20:38:46.630Z,1006.47
2019-01-28T20:39:46.653Z,1006.48
2019-01-28T20:40:46.363Z,1006.47
2019-01-28T20:41:46.559Z,1006.51
2019-01-28T20:42:46.724Z,1006.52
2019-01-28T20:43:46.354Z,1006.54
2019-01-28T20:44:46.384Z,1006.59
2019-01-28T20:45:46.376Z,1006.62
2019-01-28T20:46:48.893Z,1006.66
2019-01-28T20:47:46.587Z,1006.65
2019-01-28T20:48:46.778Z,1006.68
2019-01-28T20:49:46.534Z,1006.7
2019-01-28T20:50:46.419Z,1006.66
2019-01-28T20:51:46.538Z,1006.7
2019-01-28T20:52:46.724Z,1006.72
2019-01-28T20:53:48.280Z,1006.74
2019-01-28T20:54:46.735Z,1006.75
2019-01-28T20:55:46.451Z,1006.75
2019-01-28T20:56:46.656Z,1006.73
2019-01-28T20:57:46.695Z,1006.78
2019-01-28T20:58:46.686Z,1006.78
2019-01-28T20:59:46.724Z,1006.79
2019-01-28T21:00:46.752Z,1006.86
2019-01-28T21:01:46.756Z,1006.82
2019-01-28T21:02:48.480Z,1006.88
2019-01-28T21:03:48.237Z,1006.92
2019-01-28T21:04:47.006Z,1006.94
2019-01-28T21:05:47.528Z,1006.94
2019-01-28T21:06:46.890Z,1007
2019-01-28T21:07:47.675Z,1006.99
2019-01-28T21:08:47.133Z,1007.03
2019-01-28T21:09:47.022Z,1007.05
2019-01-28T21:10:47.284Z,1007.07
2019-01-28T21:11:46.799Z,1007.08
2019-01-28T21:12:47.204Z,1007.07
2019-01-28T21:13:46.785Z,1007.14
2019-01-28T21:14:46.711Z,1007.14
2019-01-28T21:15:46.776Z,1007.14
2019-01-28T21:16:47.458Z,1007.17
2019-01-28T21:17:46.744Z,1007.2
2019-01-28T21:18:46.867Z,1007.23
2019-01-28T21:19:47.186Z,1007.27
2019-01-28T21:20:46.547Z,1007.25
2019-01-28T21:21:46.710Z,1007.26
2019-01-28T21:22:46.644Z,1007.25
2019-01-28T21:23:46.505Z,1007.26
2019-01-28T21:24:46.702Z,1007.28
2019-01-28T21:25:46.692Z,1007.3
2019-01-28T21:26:47.766Z,1007.3
2019-01-28T21:27:46.565Z,1007.33
2019-01-28T21:28:46.706Z,1007.31
2019-01-28T21:29:46.816Z,1007.29
2019-01-28T21:30:46.868Z,1007.37
2019-01-28T21:31:46.688Z,1007.33
2019-01-28T21:32:46.957Z,1007.36
2019-01-28T21:33:46.909Z,1007.41
2019-01-28T21:34:46.811Z,1007.41
2019-01-28T21:35:46.884Z,1007.42
2019-01-28T21:36:46.917Z,1007.45
2019-01-28T21:37:46.801Z,1007.41
2019-01-28T21:38:46.622Z,1007.44
2019-01-28T21:39:46.817Z,1007.48
2019-01-28T21:40:46.751Z,1007.46
2019-01-28T21:41:49.075Z,1007.46
2019-01-28T21:42:46.699Z,1007.42
2019-01-28T21:43:46.963Z,1007.4
2019-01-28T21:44:48.456Z,1007.38
2019-01-28T21:45:46.817Z,1007.38
2019-01-28T21:46:46.699Z,1007.43
2019-01-28T21:47:46.619Z,1007.46
2019-01-28T21:48:46.628Z,1007.48
2019-01-28T21:49:48.218Z,1007.51
2019-01-28T21:50:46.652Z,1007.51
2019-01-28T21:51:51.017Z,1007.5
2019-01-28T21:52:46.751Z,1007.48
2019-01-28T21:53:46.737Z,1007.51
2019-01-28T21:54:46.706Z,1007.5
2019-01-28T21:55:46.752Z,1007.48
2019-01-28T21:56:48.005Z,1007.48
2019-01-28T21:57:48.200Z,1007.48
2019-01-28T21:58:46.861Z,1007.53
2019-01-28T21:59:46.623Z,1007.5
2019-01-28T22:00:46.888Z,1007.48
2019-01-28T22:01:46.561Z,1007.47
2019-01-28T22:02:47.253Z,1007.49
2019-01-28T22:03:46.760Z,1007.5
2019-01-28T22:04:47.032Z,1007.53
2019-01-28T22:05:47.032Z,1007.56
2019-01-28T22:06:46.952Z,1007.54
2019-01-28T22:07:46.539Z,1007.56
2019-01-28T22:08:46.785Z,1007.6
2019-01-28T22:09:46.472Z,1007.6
2019-01-28T22:10:46.940Z,1007.59
2019-01-28T22:11:46.945Z,1007.61
2019-01-28T22:12:46.664Z,1007.58
2019-01-28T22:13:46.730Z,1007.63
2019-01-28T22:14:46.867Z,1007.67
2019-01-28T22:15:46.939Z,1007.66
2019-01-28T22:16:47.225Z,1007.66
2019-01-28T22:17:47.431Z,1007.68
2019-01-28T22:18:46.790Z,1007.69
2019-01-28T22:19:46.594Z,1007.69
2019-01-28T22:20:46.411Z,1007.72
2019-01-28T22:21:47.130Z,1007.74
2019-01-28T22:22:46.636Z,1007.7
2019-01-28T22:23:46.457Z,1007.72
2019-01-28T22:24:46.543Z,1007.71
2019-01-28T22:25:46.601Z,1007.74
2019-01-28T22:26:46.449Z,1007.78
2019-01-28T22:27:46.686Z,1007.75
2019-01-28T22:28:46.739Z,1007.76
2019-01-28T22:29:47.081Z,1007.76
2019-01-28T22:30:46.617Z,1007.75
2019-01-28T22:31:46.612Z,1007.77
2019-01-28T22:32:46.420Z,1007.8
2019-01-28T22:33:47.036Z,1007.84
2019-01-28T22:34:48.377Z,1007.88
2019-01-28T22:35:46.624Z,1007.88
2019-01-28T22:36:47.141Z,1007.89
2019-01-28T22:37:46.643Z,1007.89
2019-01-28T22:38:49.021Z,1007.9
2019-01-28T22:39:46.726Z,1007.92
2019-01-28T22:40:46.710Z,1007.93
2019-01-28T22:41:46.620Z,1007.91
2019-01-28T22:42:46.643Z,1007.95
2019-01-28T22:43:46.884Z,1007.95
2019-01-28T22:44:46.677Z,1007.92
2019-01-28T22:45:47.041Z,1007.94
2019-01-28T22:46:47.354Z,1007.93
2019-01-28T22:47:46.732Z,1007.97
2019-01-28T22:48:46.702Z,1008.01
2019-01-28T22:49:46.838Z,1008
2019-01-28T22:50:46.845Z,1007.98
2019-01-28T22:51:47.136Z,1007.98
2019-01-28T22:52:46.886Z,1008.02
2019-01-28T22:53:47.280Z,1008.08
2019-01-28T22:54:47.174Z,1008.03
2019-01-28T22:55:46.810Z,1008.08
2019-01-28T22:56:46.403Z,1008.07
2019-01-28T22:57:46.820Z,1008.09
2019-01-28T22:58:46.828Z,1008.11
2019-01-28T22:59:46.586Z,1008.11
2019-01-28T23:00:46.682Z,1008.1
2019-01-28T23:01:46.823Z,1008.12
2019-01-28T23:02:46.704Z,1008.1
2019-01-28T23:03:46.553Z,1008.15
2019-01-28T23:04:46.581Z,1008.17
2019-01-28T23:05:46.927Z,1008.18
2019-01-28T23:06:46.864Z,1008.17
2019-01-28T23:07:46.926Z,1008.2
2019-01-28T23:08:46.758Z,1008.22
2019-01-28T23:09:46.777Z,1008.23
2019-01-28T23:10:46.640Z,1008.23
2019-01-28T23:11:46.520Z,1008.27
2019-01-28T23:12:47.005Z,1008.33
2019-01-28T23:13:46.670Z,1008.31
2019-01-28T23:14:46.799Z,1008.29
2019-01-28T23:15:47.009Z,1008.3
2019-01-28T23:16:46.829Z,1008.32
2019-01-28T23:17:46.850Z,1008.38
2019-01-28T23:18:46.564Z,1008.38
2019-01-28T23:19:46.486Z,1008.42
2019-01-28T23:20:46.578Z,1008.45
2019-01-28T23:21:46.899Z,1008.44
2019-01-28T23:22:46.493Z,1008.41
2019-01-28T23:23:46.996Z,1008.46
2019-01-28T23:24:46.762Z,1008.44
2019-01-28T23:25:46.812Z,1008.44
2019-01-28T23:26:46.729Z,1008.46
2019-01-28T23:27:47.128Z,1008.45
2019-01-28T23:28:46.570Z,1008.49
2019-01-28T23:29:46.557Z,1008.5
2019-01-28T23:30:46.761Z,1008.46
2019-01-28T23:31:46.642Z,1008.47
2019-01-28T23:32:46.666Z,1008.48
2019-01-28T23:33:46.601Z,1008.5
2019-01-28T23:34:46.464Z,1008.49
2019-01-28T23:35:46.594Z,1008.5
2019-01-28T23:36:47.376Z,1008.54
2019-01-28T23:37:46.868Z,1008.53
2019-01-28T23:38:47.086Z,1008.55
2019-01-28T23:39:47.518Z,1008.54
2019-01-28T23:40:46.617Z,1008.52
2019-01-28T23:41:46.331Z,1008.54
2019-01-28T23:42:46.720Z,1008.56
2019-01-28T23:43:46.493Z,1008.54
2019-01-28T23:44:46.398Z,1008.56
2019-01-28T23:45:46.841Z,1008.57
2019-01-28T23:46:46.745Z,1008.57
2019-01-28T23:47:46.602Z,1008.6
2019-01-28T23:48:46.728Z,1008.57
2019-01-28T23:49:46.584Z,1008.61
2019-01-28T23:50:46.699Z,1008.64
2019-01-28T23:51:46.777Z,1008.63
2019-01-28T23:52:47.735Z,1008.61
2019-01-28T23:53:47.433Z,1008.62
2019-01-28T23:54:46.606Z,1008.65
2019-01-28T23:55:47.423Z,1008.69
2019-01-28T23:56:46.804Z,1008.68
2019-01-28T23:57:46.639Z,1008.7
2019-01-28T23:58:47.034Z,1008.69
2019-01-28T23:59:46.843Z,1008.74
